createdAt,value
2018-05-27T00:00:49.102Z,5.73
2018-05-27T00:03:15.132Z,5.67
2018-05-27T00:05:41.135Z,5.43
2018-05-27T00:08:07.146Z,5.60
2018-05-27T00:10:33.191Z,5.77
2018-05-27T00:12:59.194Z,5.30
2018-05-27T00:15:25.219Z,5.23
2018-05-27T00:17:51.255Z,5.70
2018-05-27T00:20:17.278Z,5.60
2018-05-27T00:22:43.291Z,6.00
2018-05-27T00:25:09.304Z,5.67
2018-05-27T00:27:35.327Z,5.63
2018-05-27T00:30:01.355Z,6.20
2018-05-27T00:32:27.371Z,6.07
2018-05-27T00:34:53.404Z,5.83
2018-05-27T00:37:19.419Z,5.70
2018-05-27T00:39:45.451Z,5.40
2018-05-27T00:42:11.470Z,5.83
2018-05-27T00:44:37.499Z,5.37
2018-05-27T00:47:03.511Z,5.80
2018-05-27T00:49:29.558Z,6.33
2018-05-27T00:51:55.566Z,5.80
2018-05-27T00:54:21.583Z,5.93
2018-05-27T00:56:47.591Z,5.97
2018-05-27T00:59:13.608Z,5.73
2018-05-27T01:01:39.607Z,5.57
2018-05-27T01:04:05.621Z,5.53
2018-05-27T01:06:31.619Z,5.50
2018-05-27T01:08:57.641Z,5.90
2018-05-27T01:11:23.658Z,4.90
2018-05-27T01:13:49.675Z,5.60
2018-05-27T01:16:15.695Z,5.83
2018-05-27T01:18:41.771Z,5.30
2018-05-27T01:21:07.782Z,5.00
2018-05-27T01:23:33.785Z,5.50
2018-05-27T01:25:59.810Z,5.30
2018-05-27T01:28:25.814Z,5.60
2018-05-27T01:30:51.846Z,5.27
2018-05-27T01:33:17.867Z,6.20
2018-05-27T01:35:43.891Z,5.57
2018-05-27T01:38:09.910Z,5.87
2018-05-27T01:40:35.934Z,6.40
2018-05-27T01:43:01.935Z,6.03
2018-05-27T01:45:27.954Z,5.00
2018-05-27T01:47:54.283Z,5.63
2018-05-27T01:50:20.348Z,5.37
2018-05-27T01:52:46.358Z,5.53
2018-05-27T01:55:12.375Z,5.37
2018-05-27T01:57:38.381Z,6.47
2018-05-27T02:00:04.395Z,6.00
2018-05-27T02:02:30.414Z,5.20
2018-05-27T02:04:56.424Z,5.63
2018-05-27T02:07:22.426Z,5.77
2018-05-27T02:09:48.442Z,5.80
2018-05-27T02:12:14.443Z,5.53
2018-05-27T02:14:40.459Z,5.40
2018-05-27T02:17:06.462Z,5.20
2018-05-27T02:19:32.481Z,6.50
2018-05-27T02:21:58.487Z,5.17
2018-05-27T02:24:24.525Z,5.20
2018-05-27T02:26:50.538Z,5.83
2018-05-27T02:29:16.547Z,5.40
2018-05-27T02:31:42.555Z,5.10
2018-05-27T02:34:08.572Z,5.20
2018-05-27T02:36:34.578Z,5.27
2018-05-27T02:39:00.591Z,5.57
2018-05-27T02:41:26.610Z,6.00
2018-05-27T02:43:52.614Z,5.47
2018-05-27T02:46:18.626Z,5.20
2018-05-27T02:48:44.619Z,5.47
2018-05-27T02:51:10.640Z,5.47
2018-05-27T02:53:36.646Z,6.00
2018-05-27T02:56:02.694Z,6.03
2018-05-27T02:58:28.703Z,5.00
2018-05-27T03:00:54.724Z,5.57
2018-05-27T03:03:20.735Z,5.37
2018-05-27T03:05:46.774Z,5.60
2018-05-27T03:08:12.766Z,5.13
2018-05-27T03:10:38.788Z,5.10
2018-05-27T03:13:04.799Z,5.37
2018-05-27T03:15:30.833Z,6.03
2018-05-27T03:17:56.842Z,5.80
2018-05-27T03:20:22.856Z,5.20
2018-05-27T03:22:48.865Z,5.30
2018-05-27T03:25:14.887Z,5.47
2018-05-27T03:27:40.887Z,5.53
2018-05-27T03:30:06.905Z,4.97
2018-05-27T03:32:32.927Z,5.33
2018-05-27T03:34:58.936Z,5.50
2018-05-27T03:37:24.945Z,5.43
2018-05-27T03:39:50.962Z,5.50
2018-05-27T03:42:16.974Z,5.20
2018-05-27T03:44:43.006Z,5.40
2018-05-27T03:47:09.007Z,5.40
2018-05-27T03:49:35.034Z,5.20
2018-05-27T03:52:01.042Z,5.17
2018-05-27T03:54:27.063Z,5.33
2018-05-27T03:56:53.059Z,5.83
2018-05-27T03:59:19.080Z,5.17
2018-05-27T04:01:45.077Z,5.70
2018-05-27T04:04:11.095Z,4.93
2018-05-27T04:06:37.106Z,5.43
2018-05-27T04:09:03.122Z,5.37
2018-05-27T04:11:29.131Z,5.33
2018-05-27T04:13:55.135Z,5.23
2018-05-27T04:16:21.155Z,5.17
2018-05-27T04:18:47.162Z,4.83
2018-05-27T04:21:13.170Z,5.70
2018-05-27T04:23:39.175Z,5.57
2018-05-27T04:26:05.269Z,5.67
2018-05-27T04:28:31.422Z,5.53
2018-05-27T04:30:57.303Z,5.77
2018-05-27T04:33:23.311Z,5.07
2018-05-27T04:35:49.327Z,5.60
2018-05-27T04:38:15.333Z,5.10
2018-05-27T04:40:41.372Z,5.30
2018-05-27T04:43:07.375Z,6.03
2018-05-27T04:45:33.381Z,5.60
2018-05-27T04:47:59.390Z,5.13
2018-05-27T04:50:25.407Z,5.93
2018-05-27T04:52:51.406Z,5.60
2018-05-27T04:55:17.414Z,5.30
2018-05-27T04:57:43.417Z,6.20
2018-05-27T05:00:09.458Z,5.20
2018-05-27T05:02:35.463Z,5.60
2018-05-27T05:05:01.463Z,6.00
2018-05-27T05:07:27.466Z,6.00
2018-05-27T05:09:53.479Z,5.00
2018-05-27T05:12:19.491Z,6.07
2018-05-27T05:14:45.532Z,4.83
2018-05-27T05:17:11.577Z,5.17
2018-05-27T05:19:37.583Z,5.20
2018-05-27T05:22:03.759Z,6.00
2018-05-27T05:24:29.748Z,5.97
2018-05-27T05:26:55.783Z,5.50
2018-05-27T05:29:21.784Z,5.13
2018-05-27T05:31:47.840Z,5.70
2018-05-27T05:34:13.845Z,5.10
2018-05-27T05:36:39.874Z,5.60
2018-05-27T05:39:05.875Z,5.27
2018-05-27T05:41:31.913Z,5.30
2018-05-27T05:43:57.933Z,5.57
2018-05-27T05:46:23.966Z,5.00
2018-05-27T05:48:49.982Z,5.00
2018-05-27T05:51:16.003Z,5.13
2018-05-27T05:53:42.014Z,5.03
2018-05-27T05:56:08.148Z,5.57
2018-05-27T05:58:34.162Z,5.00
2018-05-27T06:01:00.170Z,4.83
2018-05-27T06:03:26.167Z,4.97
2018-05-27T06:05:52.190Z,5.53
2018-05-27T06:08:18.194Z,5.23
2018-05-27T06:10:44.206Z,5.00
2018-05-27T06:13:10.218Z,5.43
2018-05-27T06:15:36.222Z,5.43
2018-05-27T06:18:02.239Z,5.90
2018-05-27T06:20:28.246Z,5.17
2018-05-27T06:22:54.258Z,6.10
2018-05-27T06:25:20.267Z,5.60
2018-05-27T06:27:46.271Z,5.70
2018-05-27T06:30:12.279Z,5.50
2018-05-27T06:32:38.303Z,5.13
2018-05-27T06:35:04.304Z,5.07
2018-05-27T06:37:30.323Z,5.57
2018-05-27T06:39:56.318Z,5.00
2018-05-27T06:42:22.374Z,4.93
2018-05-27T06:44:48.378Z,5.03
2018-05-27T06:47:14.392Z,4.93
2018-05-27T06:49:40.396Z,5.47
2018-05-27T06:52:06.394Z,5.60
2018-05-27T06:54:32.415Z,6.00
2018-05-27T06:56:58.436Z,6.90
2018-05-27T06:59:24.435Z,7.13
2018-05-27T07:01:50.461Z,8.70
2018-05-27T07:04:16.480Z,8.23
2018-05-27T07:06:42.496Z,9.90
2018-05-27T07:09:08.511Z,9.20
2018-05-27T07:11:34.580Z,10.30
2018-05-27T07:14:00.546Z,9.23
2018-05-27T07:16:26.549Z,9.30
2018-05-27T07:18:52.567Z,9.90
2018-05-27T07:21:18.571Z,10.40
2018-05-27T07:23:44.603Z,9.77
2018-05-27T07:26:10.615Z,9.40
2018-05-27T07:28:36.618Z,8.90
2018-05-27T07:31:02.643Z,8.97
2018-05-27T07:33:28.679Z,9.00
2018-05-27T07:35:54.684Z,9.53
2018-05-27T07:38:20.690Z,9.40
2018-05-27T07:40:46.745Z,9.73
2018-05-27T07:43:12.780Z,10.33
2018-05-27T07:45:38.782Z,9.10
2018-05-27T07:48:04.817Z,9.07
2018-05-27T07:50:34.791Z,10.27
2018-05-27T07:53:00.936Z,8.50
2018-05-27T07:55:26.970Z,10.50
2018-05-27T07:57:52.970Z,9.87
2018-05-27T08:00:19.270Z,9.27
2018-05-27T08:02:45.365Z,10.00
2018-05-27T08:05:11.447Z,9.30
2018-05-27T08:07:37.507Z,8.90
2018-05-27T08:10:03.668Z,10.80
2018-05-27T08:12:29.690Z,10.03
2018-05-27T08:14:55.718Z,11.50
2018-05-27T08:17:21.735Z,11.63
2018-05-27T08:19:47.824Z,11.40
2018-05-27T08:22:13.899Z,10.00
2018-05-27T08:24:39.918Z,11.40
2018-05-27T08:27:05.919Z,9.20
2018-05-27T08:29:34.021Z,9.13
2018-05-27T08:32:00.050Z,10.57
2018-05-27T08:34:26.071Z,9.73
2018-05-27T08:36:52.106Z,8.93
2018-05-27T08:39:18.155Z,9.10
2018-05-27T08:41:44.174Z,9.33
2018-05-27T08:44:10.216Z,8.40
2018-05-27T08:46:36.261Z,8.63
2018-05-27T08:49:02.321Z,8.37
2018-05-27T08:51:28.439Z,8.83
2018-05-27T08:53:54.456Z,9.20
2018-05-27T08:56:20.499Z,8.37
2018-05-27T08:58:46.519Z,8.47
2018-05-27T09:01:12.560Z,9.03
2018-05-27T09:03:38.624Z,8.67
2018-05-27T09:06:04.671Z,8.13
2018-05-27T09:08:30.707Z,8.27
2018-05-27T09:10:56.732Z,8.67
2018-05-27T09:13:22.741Z,8.90
2018-05-27T09:15:48.755Z,8.50
2018-05-27T09:18:14.767Z,8.70
2018-05-27T09:20:40.782Z,8.67
2018-05-27T09:23:06.782Z,7.60
2018-05-27T09:25:32.801Z,7.87
2018-05-27T09:27:58.830Z,9.00
2018-05-27T09:30:24.850Z,9.40
2018-05-27T09:32:50.867Z,8.73
2018-05-27T09:35:16.895Z,8.60
2018-05-27T09:37:42.905Z,9.00
2018-05-27T09:40:08.929Z,8.27
2018-05-27T09:42:34.971Z,9.73
2018-05-27T09:45:01.068Z,8.47
2018-05-27T09:47:27.127Z,8.83
2018-05-27T09:49:53.133Z,7.93
2018-05-27T09:52:19.238Z,8.00
2018-05-27T09:54:45.258Z,7.80
2018-05-27T09:57:11.285Z,8.63
2018-05-27T09:59:37.292Z,7.47
2018-05-27T10:02:03.310Z,7.60
2018-05-27T10:04:29.321Z,7.60
2018-05-27T10:06:55.339Z,8.83
2018-05-27T10:09:21.348Z,7.47
2018-05-27T10:11:47.444Z,8.00
2018-05-27T10:14:13.383Z,8.53
2018-05-27T10:16:39.386Z,7.43
2018-05-27T10:19:05.481Z,7.73
2018-05-27T10:21:31.448Z,7.33
2018-05-27T10:23:57.472Z,6.67
2018-05-27T10:26:23.512Z,7.57
2018-05-27T10:28:49.569Z,7.27
2018-05-27T10:31:15.598Z,7.20
2018-05-27T10:33:41.608Z,7.70
2018-05-27T10:36:07.692Z,7.80
2018-05-27T10:38:33.716Z,7.60
2018-05-27T10:40:59.707Z,6.73
2018-05-27T10:43:25.737Z,7.00
2018-05-27T10:45:51.734Z,7.00
2018-05-27T10:48:17.748Z,7.10
2018-05-27T10:50:43.759Z,6.30
2018-05-27T10:53:09.775Z,6.80
2018-05-27T10:55:35.801Z,7.40
2018-05-27T10:58:01.829Z,6.97
2018-05-27T11:00:27.849Z,6.70
2018-05-27T11:02:53.870Z,7.00
2018-05-27T11:05:19.879Z,6.93
2018-05-27T11:07:45.918Z,7.87
2018-05-27T11:10:11.941Z,7.27
2018-05-27T11:12:37.960Z,6.47
2018-05-27T11:15:03.955Z,7.00
2018-05-27T11:17:29.993Z,7.17
2018-05-27T11:19:56.004Z,6.40
2018-05-27T11:22:22.019Z,6.47
2018-05-27T11:24:48.026Z,5.83
2018-05-27T11:27:14.047Z,6.37
2018-05-27T11:29:40.055Z,5.73
2018-05-27T11:32:06.083Z,6.33
2018-05-27T11:34:32.075Z,6.03
2018-05-27T11:36:58.127Z,6.97
2018-05-27T11:39:24.123Z,6.10
2018-05-27T11:41:50.147Z,5.80
2018-05-27T11:44:16.158Z,6.10
2018-05-27T11:46:42.162Z,6.70
2018-05-27T11:49:08.164Z,6.00
2018-05-27T11:51:34.186Z,6.57
2018-05-27T11:54:00.193Z,6.10
2018-05-27T11:56:26.222Z,5.77
2018-05-27T11:58:52.228Z,5.60
2018-05-27T12:01:18.238Z,6.20
2018-05-27T12:03:44.246Z,5.60
2018-05-27T12:06:10.255Z,6.00
2018-05-27T12:08:36.263Z,6.03
2018-05-27T12:11:02.271Z,6.13
2018-05-27T12:13:28.346Z,6.03
2018-05-27T12:15:54.391Z,5.70
2018-05-27T12:18:20.399Z,6.00
2018-05-27T12:20:46.408Z,5.87
2018-05-27T12:23:12.417Z,5.20
2018-05-27T12:25:38.419Z,5.87
2018-05-27T12:28:04.430Z,5.23
2018-05-27T12:30:30.435Z,6.17
2018-05-27T12:32:56.451Z,5.73
2018-05-27T12:35:22.459Z,5.37
2018-05-27T12:37:48.474Z,5.57
2018-05-27T12:40:14.489Z,6.47
2018-05-27T12:42:40.519Z,5.63
2018-05-27T12:45:06.532Z,5.40
2018-05-27T12:47:32.542Z,5.83
2018-05-27T12:49:58.546Z,5.90
2018-05-27T12:52:24.562Z,5.43
2018-05-27T12:54:50.574Z,5.33
2018-05-27T12:57:16.586Z,5.50
2018-05-27T12:59:42.598Z,5.80
2018-05-27T13:02:08.618Z,5.27
2018-05-27T13:04:34.627Z,5.60
2018-05-27T13:07:00.650Z,4.80
2018-05-27T13:09:26.665Z,5.40
2018-05-27T13:11:52.688Z,5.70
2018-05-27T13:14:18.690Z,5.10
2018-05-27T13:16:44.853Z,5.30
2018-05-27T13:19:10.730Z,4.90
2018-05-27T13:21:36.748Z,4.90
2018-05-27T13:24:02.763Z,4.70
2018-05-27T13:26:28.772Z,5.07
2018-05-27T13:28:54.788Z,5.77
2018-05-27T13:31:20.794Z,5.67
2018-05-27T13:33:46.816Z,5.87
2018-05-27T13:36:12.823Z,5.20
2018-05-27T13:38:38.825Z,4.73
2018-05-27T13:41:04.839Z,5.10
2018-05-27T13:43:30.849Z,4.50
2018-05-27T13:45:56.857Z,5.03
2018-05-27T13:48:22.877Z,4.83
2018-05-27T13:50:48.882Z,5.23
2018-05-27T13:53:14.902Z,5.30
2018-05-27T13:55:41.099Z,5.47
2018-05-27T13:58:07.134Z,5.93
2018-05-27T14:00:33.155Z,5.53
2018-05-27T14:02:59.154Z,5.80
2018-05-27T14:05:25.170Z,5.43
2018-05-27T14:07:51.221Z,5.60
2018-05-27T14:10:17.293Z,6.30
2018-05-27T14:12:43.273Z,6.60
2018-05-27T14:15:09.280Z,6.37
2018-05-27T14:17:35.294Z,7.03
2018-05-27T14:20:01.309Z,6.67
2018-05-27T14:22:27.326Z,7.40
2018-05-27T14:24:53.406Z,7.13
2018-05-27T14:27:19.422Z,6.53
2018-05-27T14:29:45.426Z,6.87
2018-05-27T14:32:11.430Z,6.50
2018-05-27T14:34:37.424Z,6.17
2018-05-27T14:37:03.485Z,7.10
2018-05-27T14:39:29.497Z,6.00
2018-05-27T14:41:55.510Z,6.10
2018-05-27T14:44:21.535Z,6.13
2018-05-27T14:46:47.599Z,6.73
2018-05-27T14:49:13.627Z,6.50
2018-05-27T14:51:39.640Z,6.40
2018-05-27T14:54:05.755Z,6.20
2018-05-27T14:56:31.794Z,6.30
2018-05-27T14:58:57.866Z,6.33
2018-05-27T15:01:23.884Z,6.70
2018-05-27T15:03:49.902Z,6.60
2018-05-27T15:06:15.914Z,5.97
2018-05-27T15:08:41.972Z,5.63
2018-05-27T15:11:07.970Z,6.50
2018-05-27T15:13:34.003Z,6.40
2018-05-27T15:16:00.103Z,6.60
2018-05-27T15:18:26.133Z,7.03
2018-05-27T15:20:52.160Z,6.47
2018-05-27T15:23:18.186Z,6.13
2018-05-27T15:25:44.196Z,6.23
2018-05-27T15:28:10.215Z,6.27
2018-05-27T15:30:36.223Z,6.50
2018-05-27T15:33:02.499Z,7.27
2018-05-27T15:35:28.586Z,6.77
2018-05-27T15:37:54.602Z,6.10
2018-05-27T15:40:20.619Z,6.47
2018-05-27T15:42:46.660Z,6.93
2018-05-27T15:45:12.699Z,7.87
2018-05-27T15:47:38.818Z,7.90
2018-05-27T15:50:04.848Z,9.10
2018-05-27T15:52:31.069Z,7.53
2018-05-27T15:54:58.154Z,7.60
2018-05-27T15:57:24.132Z,7.77
2018-05-27T15:59:50.420Z,7.00
2018-05-27T16:02:16.392Z,8.40
2018-05-27T16:04:42.445Z,7.13
2018-05-27T16:07:08.571Z,7.13
2018-05-27T16:09:35.077Z,7.00
2018-05-27T16:12:01.408Z,6.80
2018-05-27T16:14:27.638Z,7.00
2018-05-27T16:16:53.707Z,6.77
2018-05-27T16:19:19.771Z,7.00
2018-05-27T16:21:45.927Z,7.37
2018-05-27T16:24:12.343Z,7.20
2018-05-27T16:26:38.457Z,6.73
2018-05-27T16:29:04.507Z,6.80
2018-05-27T16:31:30.526Z,6.83
2018-05-27T16:33:56.554Z,7.00
2018-05-27T16:36:22.667Z,6.47
2018-05-27T16:38:48.746Z,6.90
2018-05-27T16:41:14.756Z,7.40
2018-05-27T16:43:40.848Z,6.57
2018-05-27T16:46:07.003Z,7.50
2018-05-27T16:48:33.346Z,7.90
2018-05-27T16:50:59.550Z,7.90
2018-05-27T16:53:25.590Z,7.23
2018-05-27T16:55:51.603Z,7.20
2018-05-27T16:58:17.631Z,7.97
2018-05-27T17:00:44.275Z,7.37
2018-05-27T17:03:10.539Z,7.70
2018-05-27T17:05:36.547Z,8.10
2018-05-27T17:08:02.607Z,8.07
2018-05-27T17:10:28.636Z,8.73
2018-05-27T17:12:54.655Z,7.77
2018-05-27T17:15:20.680Z,8.50
2018-05-27T17:17:46.700Z,8.60
2018-05-27T17:20:12.745Z,7.63
2018-05-27T17:22:38.775Z,7.57
2018-05-27T17:25:04.796Z,7.70
2018-05-27T17:27:31.001Z,7.50
2018-05-27T17:29:57.080Z,6.93
2018-05-27T17:32:23.155Z,8.37
2018-05-27T17:34:49.169Z,7.37
2018-05-27T17:37:15.181Z,8.03
2018-05-27T17:39:41.194Z,7.50
2018-05-27T17:42:07.201Z,6.60
2018-05-27T17:44:33.424Z,8.30
2018-05-27T17:46:59.620Z,8.47
2018-05-27T17:49:25.664Z,9.07
2018-05-27T17:51:52.061Z,9.93
2018-05-27T17:54:18.108Z,9.80
2018-05-27T17:56:44.411Z,10.43
2018-05-27T17:59:10.471Z,9.20
2018-05-27T18:01:36.770Z,9.30
2018-05-27T18:04:02.843Z,9.53
2018-05-27T18:06:28.861Z,10.63
2018-05-27T18:08:54.934Z,10.20
2018-05-27T18:11:20.940Z,10.07
2018-05-27T18:13:46.967Z,10.27
2018-05-27T18:16:12.977Z,9.73
2018-05-27T18:18:39.001Z,9.60
2018-05-27T18:21:05.011Z,9.87
2018-05-27T18:23:31.049Z,8.63
2018-05-27T18:25:57.053Z,9.80
2018-05-27T18:28:23.070Z,9.00
2018-05-27T18:30:49.126Z,10.00
2018-05-27T18:33:15.139Z,10.77
2018-05-27T18:35:41.157Z,10.10
2018-05-27T18:38:07.176Z,9.90
2018-05-27T18:40:33.239Z,9.40
2018-05-27T18:42:59.254Z,10.40
2018-05-27T18:45:25.255Z,8.47
2018-05-27T18:47:51.260Z,10.23
2018-05-27T18:50:17.299Z,8.90
2018-05-27T18:52:43.306Z,9.60
2018-05-27T18:55:09.331Z,9.00
2018-05-27T18:57:35.790Z,9.77
2018-05-27T19:00:01.824Z,9.07
2018-05-27T19:02:27.831Z,9.60
2018-05-27T19:04:53.892Z,8.90
2018-05-27T19:07:19.907Z,8.40
2018-05-27T19:09:45.930Z,9.93
2018-05-27T19:12:11.959Z,9.07
2018-05-27T19:14:37.998Z,8.20
2018-05-27T19:17:04.005Z,9.50
2018-05-27T19:19:30.144Z,9.23
2018-05-27T19:21:56.178Z,8.80
2018-05-27T19:24:22.218Z,8.80
2018-05-27T19:26:48.224Z,9.17
2018-05-27T19:29:14.235Z,9.10
2018-05-27T19:31:40.291Z,8.70
2018-05-27T19:34:06.335Z,8.30
2018-05-27T19:36:32.526Z,9.33
2018-05-27T19:38:58.636Z,8.40
2018-05-27T19:41:24.700Z,9.53
2018-05-27T19:43:50.714Z,8.77
2018-05-27T19:46:16.738Z,9.07
2018-05-27T19:48:42.756Z,8.17
2018-05-27T19:51:08.781Z,9.60
2018-05-27T19:53:34.815Z,8.83
2018-05-27T19:56:00.882Z,8.20
2018-05-27T19:58:26.933Z,9.60
2018-05-27T20:00:53.167Z,8.23
2018-05-27T20:05:52.151Z,8.23
2018-05-27T20:08:18.504Z,9.20
2018-05-27T20:10:44.597Z,8.30
2018-05-27T20:13:10.936Z,8.33
2018-05-27T20:15:37.471Z,8.27
2018-05-27T20:18:03.515Z,7.80
2018-05-27T20:20:29.558Z,8.43
2018-05-27T20:22:55.956Z,8.33
2018-05-27T20:25:22.034Z,8.17
2018-05-27T20:27:48.308Z,8.57
2018-05-27T20:30:14.347Z,7.40
2018-05-27T20:32:40.366Z,8.87
2018-05-27T20:35:06.581Z,8.00
2018-05-27T20:37:33.116Z,8.33
2018-05-27T20:39:59.422Z,8.20
2018-05-27T20:42:25.475Z,7.60
2018-05-27T20:44:51.909Z,8.57
2018-05-27T20:47:17.966Z,8.60
2018-05-27T20:49:43.992Z,7.53
2018-05-27T20:52:10.013Z,8.80
2018-05-27T20:54:36.063Z,7.53
2018-05-27T20:57:02.078Z,8.20
2018-05-27T20:59:28.107Z,8.37
2018-05-27T21:01:54.118Z,8.50
2018-05-27T21:04:20.201Z,7.30
2018-05-27T21:06:46.215Z,8.07
2018-05-27T21:09:12.247Z,7.50
2018-05-27T21:11:38.276Z,6.70
2018-05-27T21:14:04.374Z,7.80
2018-05-27T21:16:30.388Z,6.40
2018-05-27T21:18:56.433Z,7.20
2018-05-27T21:21:22.443Z,7.50
2018-05-27T21:23:48.455Z,7.50
2018-05-27T21:26:14.455Z,7.70
2018-05-27T21:28:40.489Z,7.27
2018-05-27T21:31:06.504Z,7.47
2018-05-27T21:33:32.528Z,7.13
2018-05-27T21:35:58.548Z,7.60
2018-05-27T21:38:24.551Z,6.80
2018-05-27T21:40:50.562Z,7.70
2018-05-27T21:43:16.569Z,7.33
2018-05-27T21:45:42.672Z,6.80
2018-05-27T21:48:08.684Z,7.83
2018-05-27T21:50:34.697Z,7.20
2018-05-27T21:53:00.697Z,7.33
2018-05-27T21:55:26.719Z,7.33
2018-05-27T21:57:52.722Z,7.40
2018-05-27T22:00:18.751Z,7.00
2018-05-27T22:02:44.759Z,6.93
2018-05-27T22:05:10.779Z,6.93
2018-05-27T22:07:36.783Z,7.23
2018-05-27T22:10:02.811Z,7.30
2018-05-27T22:12:28.821Z,7.40
2018-05-27T22:14:54.843Z,7.47
2018-05-27T22:17:20.850Z,7.30
2018-05-27T22:19:46.865Z,6.60
2018-05-27T22:22:12.870Z,6.63
2018-05-27T22:24:38.897Z,7.33
2018-05-27T22:27:04.905Z,6.77
2018-05-27T22:29:30.924Z,7.30
2018-05-27T22:31:56.931Z,6.77
2018-05-27T22:34:22.942Z,6.80
2018-05-27T22:36:48.959Z,6.57
2018-05-27T22:39:14.975Z,7.10
2018-05-27T22:41:40.979Z,7.27
2018-05-27T22:44:06.994Z,6.27
2018-05-27T22:46:33.018Z,7.07
2018-05-27T22:48:59.033Z,6.90
2018-05-27T22:51:25.041Z,6.83
2018-05-27T22:53:51.038Z,6.83
2018-05-27T22:56:17.064Z,6.63
2018-05-27T22:58:43.210Z,6.60
2018-05-27T23:01:09.266Z,7.07
2018-05-27T23:03:35.260Z,6.30
2018-05-27T23:06:01.268Z,6.17
2018-05-27T23:08:27.278Z,6.63
2018-05-27T23:10:53.291Z,6.00
2018-05-27T23:13:19.299Z,7.00
2018-05-27T23:15:45.317Z,6.10
2018-05-27T23:18:11.318Z,6.00
2018-05-27T23:20:37.330Z,6.67
2018-05-27T23:23:03.348Z,6.27
2018-05-27T23:25:29.367Z,6.40
2018-05-27T23:27:55.371Z,6.23
2018-05-27T23:30:21.387Z,6.70
2018-05-27T23:32:47.394Z,6.30
2018-05-27T23:35:13.411Z,7.43
2018-05-27T23:37:39.422Z,6.23
2018-05-27T23:40:05.486Z,6.27
2018-05-27T23:42:31.494Z,6.70
2018-05-27T23:47:30.100Z,6.53
2018-05-27T23:49:56.125Z,6.87
2018-05-27T23:52:22.139Z,7.03
2018-05-27T23:54:48.162Z,6.50
2018-05-27T23:57:14.172Z,6.10
2018-05-27T23:59:40.182Z,6.80
